createdAt,value
2023-03-19T00:02:21.444Z,8.07
2023-03-19T00:04:49.459Z,8.20
2023-03-19T00:07:17.564Z,9.63
2023-03-19T00:09:48.381Z,6.93
2023-03-19T00:12:16.742Z,9.57
2023-03-19T00:14:44.732Z,9.00
2023-03-19T00:17:12.776Z,8.20
2023-03-19T00:19:40.957Z,9.80
2023-03-19T00:22:09.108Z,8.97
2023-03-19T00:24:37.024Z,6.37
2023-03-19T00:27:06.708Z,5.67
2023-03-19T00:29:34.735Z,17.93
2023-03-19T00:32:03.431Z,47.93
2023-03-19T00:34:31.393Z,8.33
2023-03-19T00:36:59.306Z,12.00
2023-03-19T00:39:27.240Z,11.60
2023-03-19T00:41:55.154Z,8.50
2023-03-19T00:44:24.518Z,7.50
2023-03-19T00:46:52.443Z,6.83
2023-03-19T00:49:20.362Z,10.57
2023-03-19T00:51:48.369Z,14.60
2023-03-19T00:54:16.312Z,15.97
2023-03-19T00:56:44.224Z,12.20
2023-03-19T00:59:12.128Z,7.23
2023-03-19T01:01:41.778Z,12.53
2023-03-19T01:04:11.221Z,12.07
2023-03-19T01:06:39.158Z,17.30
2023-03-19T01:09:07.400Z,9.67
2023-03-19T01:11:35.329Z,10.13
2023-03-19T01:14:03.288Z,8.90
2023-03-19T01:16:31.254Z,12.23
2023-03-19T01:19:00.521Z,7.90
2023-03-19T01:21:31.005Z,12.63
2023-03-19T01:23:58.987Z,10.60
2023-03-19T01:26:27.415Z,11.43
2023-03-19T01:28:55.874Z,8.30
2023-03-19T01:31:23.945Z,10.60
2023-03-19T01:33:51.966Z,12.20
2023-03-19T01:36:21.339Z,11.63
2023-03-19T01:38:49.333Z,11.90
2023-03-19T01:41:17.308Z,8.60
2023-03-19T01:43:45.267Z,11.03
2023-03-19T01:46:17.403Z,14.00
2023-03-19T01:48:46.535Z,11.87
2023-03-19T01:51:15.854Z,13.63
2023-03-19T01:53:47.321Z,14.00
2023-03-19T01:56:16.349Z,11.53
2023-03-19T01:58:44.928Z,7.90
2023-03-19T02:01:12.944Z,13.67
2023-03-19T02:03:41.400Z,8.70
2023-03-19T02:06:09.485Z,12.20
2023-03-19T02:08:37.601Z,12.90
2023-03-19T02:11:07.882Z,11.17
2023-03-19T02:13:35.845Z,17.07
2023-03-19T02:16:04.388Z,9.00
2023-03-19T02:18:32.406Z,6.80
2023-03-19T02:21:03.078Z,7.97
2023-03-19T02:23:35.980Z,12.90
2023-03-19T02:26:06.404Z,10.80
2023-03-19T02:28:34.439Z,7.20
2023-03-19T02:31:02.451Z,10.83
2023-03-19T02:33:30.555Z,12.23
2023-03-19T02:35:58.498Z,10.07
2023-03-19T02:38:27.078Z,9.90
2023-03-19T02:40:56.599Z,9.10
2023-03-19T02:43:25.987Z,7.30
2023-03-19T02:45:53.950Z,9.80
2023-03-19T02:48:21.906Z,14.40
2023-03-19T02:50:49.878Z,12.00
2023-03-19T02:53:18.138Z,8.60
2023-03-19T02:55:46.074Z,7.87
2023-03-19T02:58:14.063Z,8.87
2023-03-19T03:00:43.560Z,12.20
2023-03-19T03:03:11.682Z,9.30
2023-03-19T03:05:39.584Z,10.00
2023-03-19T03:08:07.577Z,12.37
2023-03-19T03:10:35.738Z,14.10
2023-03-19T03:13:04.637Z,10.83
2023-03-19T03:15:33.064Z,16.70
2023-03-19T03:18:02.363Z,10.60
2023-03-19T03:20:30.652Z,14.10
2023-03-19T03:22:58.711Z,9.40
2023-03-19T03:25:26.613Z,14.17
2023-03-19T03:27:54.527Z,12.00
2023-03-19T03:30:22.470Z,10.23
2023-03-19T03:32:50.405Z,14.00
2023-03-19T03:35:22.587Z,10.53
2023-03-19T03:37:50.619Z,8.60
2023-03-19T03:40:18.801Z,10.60
2023-03-19T03:42:46.771Z,12.03
2023-03-19T03:45:15.362Z,14.00
2023-03-19T03:47:43.438Z,14.80
2023-03-19T03:50:12.774Z,14.93
2023-03-19T03:52:42.155Z,9.10
2023-03-19T03:55:10.741Z,10.23
2023-03-19T03:57:38.679Z,13.90
2023-03-19T04:00:07.459Z,16.00
2023-03-19T04:02:35.432Z,10.07
2023-03-19T04:05:03.364Z,17.90
2023-03-19T04:07:31.279Z,12.00
2023-03-19T04:10:00.626Z,11.80
2023-03-19T04:12:28.553Z,18.83
2023-03-19T04:14:56.457Z,11.60
2023-03-19T04:17:24.424Z,11.80
2023-03-19T04:19:52.375Z,13.87
2023-03-19T04:22:20.327Z,13.77
2023-03-19T04:24:48.241Z,14.97
2023-03-19T04:27:17.518Z,14.07
2023-03-19T04:29:45.429Z,17.37
2023-03-19T04:32:13.336Z,15.20
2023-03-19T04:34:41.825Z,12.90
2023-03-19T04:37:10.425Z,16.70
2023-03-19T04:39:38.344Z,10.43
2023-03-19T04:42:06.456Z,16.47
2023-03-19T04:44:35.778Z,23.13
2023-03-19T04:47:03.731Z,18.40
2023-03-19T04:49:32.256Z,16.27
2023-03-19T04:52:00.869Z,15.40
2023-03-19T04:54:28.846Z,18.93
2023-03-19T04:56:56.790Z,14.97
2023-03-19T04:59:27.006Z,14.87
2023-03-19T05:01:56.761Z,15.33
2023-03-19T05:04:25.141Z,21.50
2023-03-19T05:06:54.041Z,19.07
2023-03-19T05:09:22.025Z,24.53
2023-03-19T05:11:49.989Z,11.73
2023-03-19T05:14:17.910Z,13.40
2023-03-19T05:16:45.871Z,14.97
2023-03-19T05:19:15.197Z,15.70
2023-03-19T05:21:43.159Z,13.47
2023-03-19T05:24:11.080Z,19.53
2023-03-19T05:26:38.988Z,13.30
2023-03-19T05:29:10.754Z,18.77
2023-03-19T05:31:39.336Z,16.10
2023-03-19T05:34:07.928Z,15.60
2023-03-19T05:36:37.237Z,15.57
2023-03-19T05:39:06.087Z,14.30
2023-03-19T05:41:33.984Z,20.40
2023-03-19T05:44:02.102Z,21.40
2023-03-19T05:46:30.160Z,15.43
2023-03-19T05:48:58.233Z,17.77
2023-03-19T05:51:26.467Z,12.83
2023-03-19T05:53:55.781Z,13.93
2023-03-19T05:56:23.736Z,17.87
2023-03-19T05:58:51.852Z,21.73
2023-03-19T06:01:19.843Z,14.90
2023-03-19T06:03:47.850Z,12.33
2023-03-19T06:06:15.821Z,13.77
2023-03-19T06:08:43.983Z,15.03
2023-03-19T06:11:13.306Z,15.53
2023-03-19T06:13:43.455Z,12.30
2023-03-19T06:16:11.746Z,12.77
2023-03-19T06:18:39.856Z,13.97
2023-03-19T06:21:07.838Z,14.33
2023-03-19T06:23:36.116Z,15.63
2023-03-19T06:26:04.705Z,15.23
2023-03-19T06:28:34.132Z,14.47
2023-03-19T06:31:02.122Z,16.00
2023-03-19T06:33:32.293Z,12.97
2023-03-19T06:36:00.346Z,14.50
2023-03-19T06:38:28.456Z,18.40
2023-03-19T06:40:56.403Z,16.50
2023-03-19T06:43:24.557Z,14.30
2023-03-19T06:45:53.950Z,13.30
2023-03-19T06:48:21.985Z,16.43
2023-03-19T06:50:49.922Z,12.93
2023-03-19T06:53:17.830Z,17.97
2023-03-19T06:55:47.096Z,17.80
2023-03-19T06:58:15.085Z,21.20
2023-03-19T07:00:43.063Z,20.50
2023-03-19T07:03:12.385Z,16.70
2023-03-19T07:05:40.539Z,19.77
2023-03-19T07:08:12.006Z,20.00
2023-03-19T07:10:40.062Z,15.73
2023-03-19T07:13:08.054Z,18.53
2023-03-19T07:15:36.355Z,13.37
2023-03-19T07:18:05.189Z,14.10
2023-03-19T07:20:34.653Z,16.33
2023-03-19T07:23:02.729Z,19.90
2023-03-19T07:25:30.711Z,15.40
2023-03-19T07:27:58.631Z,15.83
2023-03-19T07:30:26.568Z,12.93
2023-03-19T07:32:54.503Z,18.07
2023-03-19T07:35:22.812Z,15.30
2023-03-19T07:37:52.201Z,14.03
2023-03-19T07:40:20.276Z,16.77
2023-03-19T07:42:48.251Z,15.50
2023-03-19T07:45:16.235Z,13.90
2023-03-19T07:47:44.229Z,21.60
2023-03-19T07:50:12.407Z,17.90
2023-03-19T07:52:40.382Z,13.17
2023-03-19T07:55:10.799Z,11.90
2023-03-19T07:57:38.750Z,17.17
2023-03-19T08:00:08.276Z,16.20
2023-03-19T08:02:36.288Z,13.30
2023-03-19T08:05:04.872Z,15.00
2023-03-19T08:07:32.872Z,14.53
2023-03-19T08:10:00.929Z,13.33
2023-03-19T08:12:30.266Z,15.57
2023-03-19T08:14:58.220Z,17.23
2023-03-19T08:17:27.279Z,13.17
2023-03-19T08:19:55.250Z,12.50
2023-03-19T08:22:23.228Z,11.60
2023-03-19T08:24:51.246Z,13.53
2023-03-19T08:27:19.223Z,15.57
2023-03-19T08:29:48.583Z,12.43
2023-03-19T08:32:16.590Z,12.97
2023-03-19T08:34:44.605Z,15.47
2023-03-19T08:37:12.756Z,9.63
2023-03-19T08:39:41.003Z,16.27
2023-03-19T08:42:09.164Z,11.83
2023-03-19T08:44:37.127Z,67.73
2023-03-19T08:47:06.732Z,17.37
2023-03-19T08:49:34.763Z,11.50
2023-03-19T08:52:02.855Z,14.20
2023-03-19T08:54:31.058Z,9.97
2023-03-19T08:56:59.023Z,11.37
2023-03-19T08:59:27.001Z,10.33
2023-03-19T09:01:56.140Z,9.70
2023-03-19T09:04:25.603Z,16.27
2023-03-19T09:06:53.593Z,15.47
2023-03-19T09:09:21.645Z,21.73
2023-03-19T09:11:49.653Z,11.10
2023-03-19T09:14:19.913Z,9.83
2023-03-19T09:16:47.986Z,9.70
2023-03-19T09:19:15.965Z,10.40
2023-03-19T09:21:46.448Z,9.87
2023-03-19T09:24:14.463Z,16.00
2023-03-19T09:26:42.440Z,8.90
2023-03-19T09:29:10.448Z,11.63
2023-03-19T09:31:38.468Z,12.30
2023-03-19T09:34:08.951Z,9.47
2023-03-19T09:36:37.052Z,12.17
2023-03-19T09:39:06.527Z,13.60
2023-03-19T09:41:37.084Z,9.37
2023-03-19T09:44:05.772Z,13.57
2023-03-19T09:46:39.774Z,11.07
2023-03-19T09:49:12.786Z,6.77
2023-03-19T09:51:44.716Z,16.03
2023-03-19T09:54:33.068Z,11.27
2023-03-19T09:57:01.098Z,12.10
2023-03-19T09:59:29.485Z,10.20
2023-03-19T10:02:00.881Z,12.73
2023-03-19T10:04:40.509Z,9.43
2023-03-19T10:07:13.609Z,11.03
2023-03-19T10:09:51.224Z,15.27
2023-03-19T10:12:26.634Z,10.93
2023-03-19T10:15:11.500Z,11.93
2023-03-19T10:17:40.752Z,8.03
2023-03-19T10:20:10.609Z,7.90
2023-03-19T10:22:39.964Z,9.60
2023-03-19T10:25:11.065Z,9.07
2023-03-19T10:27:39.051Z,8.67
2023-03-19T10:30:14.801Z,7.60
2023-03-19T10:32:43.406Z,7.50
2023-03-19T10:35:18.021Z,10.07
2023-03-19T10:37:45.965Z,9.63
2023-03-19T10:40:21.698Z,4.80
2023-03-19T10:42:57.325Z,49.73
2023-03-19T10:45:27.818Z,11.33
2023-03-19T10:47:57.005Z,3.80
2023-03-19T10:50:29.846Z,3.87
2023-03-19T10:53:04.112Z,9.10
2023-03-19T10:55:33.685Z,4.83
2023-03-19T10:58:06.175Z,5.93
2023-03-19T11:00:35.610Z,3.80
2023-03-19T11:03:04.887Z,5.20
2023-03-19T11:05:34.013Z,8.30
2023-03-19T11:08:03.120Z,6.13
2023-03-19T11:10:32.321Z,6.90
2023-03-19T11:13:04.418Z,6.33
2023-03-19T11:15:36.202Z,7.77
2023-03-19T11:18:08.193Z,11.10
2023-03-19T11:20:37.208Z,9.10
2023-03-19T11:23:12.138Z,5.63
2023-03-19T11:25:41.668Z,7.97
2023-03-19T11:28:14.161Z,7.00
2023-03-19T11:30:47.677Z,5.37
2023-03-19T11:33:21.096Z,10.83
2023-03-19T11:35:52.224Z,5.40
2023-03-19T11:38:23.181Z,10.67
2023-03-19T11:40:53.777Z,8.53
2023-03-19T11:43:56.028Z,5.60
2023-03-19T11:46:35.885Z,6.37
2023-03-19T11:49:17.018Z,6.73
2023-03-19T11:51:48.168Z,10.43
2023-03-19T11:54:21.851Z,4.70
2023-03-19T11:56:50.321Z,5.00
2023-03-19T11:59:33.605Z,4.77
2023-03-19T12:02:18.550Z,6.40
2023-03-19T12:05:10.500Z,6.03
2023-03-19T12:07:41.984Z,7.40
2023-03-19T12:10:26.333Z,4.40
2023-03-19T12:12:57.037Z,4.97
2023-03-19T12:15:28.335Z,4.85
2023-03-19T12:18:01.835Z,4.35
2023-03-19T12:20:36.272Z,12.40
2023-03-19T12:23:07.838Z,5.00
2023-03-19T12:25:42.778Z,6.97
2023-03-19T12:28:14.632Z,3.13
2023-03-19T12:30:46.169Z,5.38
2023-03-19T12:33:34.707Z,4.40
2023-03-19T12:36:02.768Z,4.15
2023-03-19T12:38:33.044Z,4.68
2023-03-19T12:41:02.506Z,4.03
2023-03-19T12:43:34.150Z,5.93
2023-03-19T12:46:04.317Z,7.50
2023-03-19T12:48:34.430Z,4.67
2023-03-19T12:51:05.481Z,9.33
2023-03-19T12:53:36.998Z,6.60
2023-03-19T12:56:08.259Z,6.70
2023-03-19T12:58:40.430Z,7.33
2023-03-19T13:01:12.477Z,4.73
2023-03-19T13:03:42.486Z,5.33
2023-03-19T13:06:11.860Z,4.13
2023-03-19T13:08:42.817Z,11.10
2023-03-19T13:11:12.747Z,5.67
2023-03-19T13:13:42.856Z,7.87
2023-03-19T13:16:17.609Z,6.30
2023-03-19T13:18:48.398Z,6.93
2023-03-19T13:21:23.017Z,5.30
2023-03-19T13:23:52.818Z,4.20
2023-03-19T13:26:20.843Z,4.73
2023-03-19T13:28:56.088Z,6.17
2023-03-19T13:31:26.689Z,8.07
2023-03-19T13:34:00.902Z,6.23
2023-03-19T13:36:28.901Z,7.70
2023-03-19T13:38:56.888Z,5.80
2023-03-19T13:41:50.396Z,7.57
2023-03-19T13:44:45.680Z,4.07
2023-03-19T13:47:40.259Z,10.87
2023-03-19T13:50:52.048Z,5.77
2023-03-19T13:53:40.670Z,4.57
2023-03-19T13:56:26.237Z,3.83
2023-03-19T13:59:27.086Z,7.13
2023-03-19T14:01:55.261Z,5.30
2023-03-19T14:04:26.480Z,6.10
2023-03-19T14:06:55.108Z,4.67
2023-03-19T14:09:43.488Z,5.40
2023-03-19T14:12:33.979Z,6.17
2023-03-19T14:15:03.160Z,7.37
2023-03-19T14:17:33.000Z,6.23
2023-03-19T14:20:09.003Z,7.90
2023-03-19T14:22:38.583Z,5.40
2023-03-19T14:25:17.676Z,4.90
2023-03-19T14:27:47.280Z,5.60
2023-03-19T14:30:22.473Z,6.13
2023-03-19T14:32:50.586Z,9.80
2023-03-19T14:35:20.968Z,6.50
2023-03-19T14:37:50.207Z,6.33
2023-03-19T14:40:18.785Z,6.70
2023-03-19T14:42:54.729Z,7.43
2023-03-19T14:45:33.194Z,7.60
2023-03-19T14:48:29.654Z,5.83
2023-03-19T14:51:30.903Z,10.97
2023-03-19T14:54:02.146Z,9.83
2023-03-19T14:56:32.892Z,9.80
2023-03-19T14:59:03.931Z,7.43
2023-03-19T15:01:32.619Z,7.40
2023-03-19T15:04:03.133Z,7.00
2023-03-19T15:06:32.919Z,10.10
2023-03-19T15:09:02.710Z,6.87
2023-03-19T15:11:43.440Z,7.60
2023-03-19T15:14:17.893Z,6.90
2023-03-19T15:16:48.982Z,12.40
2023-03-19T15:19:16.982Z,7.40
2023-03-19T15:21:44.927Z,6.70
2023-03-19T15:24:16.383Z,7.83
2023-03-19T15:26:44.536Z,21.33
2023-03-19T15:29:13.623Z,12.60
2023-03-19T15:31:51.582Z,5.77
2023-03-19T15:34:22.556Z,9.03
2023-03-19T15:36:52.913Z,9.33
2023-03-19T15:39:22.830Z,10.87
2023-03-19T15:41:50.923Z,9.27
2023-03-19T15:44:20.371Z,9.60
2023-03-19T15:46:48.326Z,11.13
2023-03-19T15:49:17.419Z,7.77
2023-03-19T15:51:45.474Z,10.97
2023-03-19T15:54:13.417Z,9.63
2023-03-19T15:56:42.733Z,8.07
2023-03-19T15:59:10.887Z,10.13
2023-03-19T16:01:39.013Z,15.07
2023-03-19T16:04:10.350Z,18.30
2023-03-19T16:06:39.340Z,32.07
2023-03-19T16:09:18.732Z,36.37
2023-03-19T16:11:49.007Z,34.47
2023-03-19T16:14:24.251Z,31.23
2023-03-19T16:16:52.322Z,20.13
2023-03-19T16:19:33.939Z,32.07
2023-03-19T16:22:01.958Z,23.07
2023-03-19T16:24:33.639Z,31.67
2023-03-19T16:27:04.776Z,33.20
2023-03-19T16:29:35.469Z,35.63
2023-03-19T16:32:04.426Z,24.30
2023-03-19T16:34:37.737Z,17.87
2023-03-19T16:37:26.899Z,12.97
2023-03-19T16:39:55.801Z,19.93
2023-03-19T16:42:37.943Z,21.87
2023-03-19T16:45:20.308Z,21.47
2023-03-19T16:47:48.770Z,24.20
2023-03-19T16:50:17.404Z,96.47
2023-03-19T16:52:46.123Z,123.03
2023-03-19T16:55:19.719Z,69.10
2023-03-19T16:57:55.299Z,29.13
2023-03-19T17:00:24.697Z,19.87
2023-03-19T17:02:53.036Z,24.43
2023-03-19T17:05:21.182Z,22.57
2023-03-19T17:07:49.179Z,27.97
2023-03-19T17:10:17.477Z,29.40
2023-03-19T17:12:46.217Z,23.20
2023-03-19T17:15:23.263Z,44.90
2023-03-19T17:17:51.238Z,35.80
2023-03-19T17:20:19.426Z,69.43
2023-03-19T17:22:47.390Z,77.37
2023-03-19T17:25:15.907Z,38.67
2023-03-19T17:27:43.863Z,38.90
2023-03-19T17:30:12.448Z,38.57
2023-03-19T17:32:42.932Z,28.00
2023-03-19T17:35:15.244Z,36.37
2023-03-19T17:37:43.174Z,32.70
2023-03-19T17:40:17.288Z,42.03
2023-03-19T17:42:45.452Z,38.53
2023-03-19T17:45:15.105Z,36.97
2023-03-19T17:47:44.488Z,44.40
2023-03-19T17:50:16.666Z,45.37
2023-03-19T17:52:45.769Z,51.20
2023-03-19T17:55:17.353Z,55.77
2023-03-19T17:57:45.347Z,39.93
2023-03-19T18:00:14.497Z,42.30
2023-03-19T18:02:42.461Z,40.33
2023-03-19T18:05:17.624Z,38.07
2023-03-19T18:07:45.664Z,38.73
2023-03-19T18:10:20.192Z,69.10
2023-03-19T18:12:49.408Z,61.47
2023-03-19T18:15:17.592Z,55.57
2023-03-19T18:17:48.401Z,57.20
2023-03-19T18:20:18.675Z,56.53
2023-03-19T18:22:46.676Z,32.27
2023-03-19T18:25:18.354Z,27.17
2023-03-19T18:27:46.451Z,26.00
2023-03-19T18:30:15.848Z,27.50
2023-03-19T18:32:45.706Z,30.37
2023-03-19T18:35:17.654Z,25.97
2023-03-19T18:37:46.195Z,30.33
2023-03-19T18:40:15.708Z,31.83
2023-03-19T18:42:43.785Z,42.17
2023-03-19T18:45:13.357Z,41.57
2023-03-19T18:47:41.383Z,38.73
2023-03-19T18:50:18.841Z,53.07
2023-03-19T18:52:46.839Z,35.70
2023-03-19T18:55:14.919Z,31.70
2023-03-19T18:57:52.617Z,37.67
2023-03-19T19:00:22.395Z,51.07
2023-03-19T19:02:50.338Z,43.57
2023-03-19T19:05:22.483Z,55.20
2023-03-19T19:07:50.555Z,41.93
2023-03-19T19:10:18.721Z,56.47
2023-03-19T19:12:47.786Z,43.73
2023-03-19T19:15:22.795Z,47.87
2023-03-19T19:17:50.731Z,38.90
2023-03-19T19:20:21.556Z,39.30
2023-03-19T19:22:51.359Z,47.07
2023-03-19T19:25:19.712Z,39.90
2023-03-19T19:27:48.501Z,38.43
2023-03-19T19:30:18.476Z,33.27
2023-03-19T19:32:46.770Z,31.83
2023-03-19T19:35:22.805Z,130.50
2023-03-19T19:37:51.021Z,99.77
2023-03-19T19:40:20.818Z,38.97
2023-03-19T19:42:51.486Z,27.50
2023-03-19T19:45:26.685Z,23.90
2023-03-19T19:47:54.636Z,36.00
2023-03-19T19:50:25.527Z,39.23
2023-03-19T19:52:54.001Z,33.93
2023-03-19T19:55:22.004Z,34.43
2023-03-19T19:57:50.038Z,35.27
2023-03-19T20:00:22.540Z,45.13
2023-03-19T20:02:50.490Z,32.83
2023-03-19T20:05:21.687Z,28.03
2023-03-19T20:07:51.736Z,26.77
2023-03-19T20:10:19.825Z,22.80
2023-03-19T20:12:51.180Z,25.70
2023-03-19T20:15:23.167Z,32.03
2023-03-19T20:17:51.904Z,30.40
2023-03-19T20:20:21.484Z,27.17
2023-03-19T20:22:50.960Z,17.57
2023-03-19T20:25:19.516Z,23.80
2023-03-19T20:27:47.578Z,24.13
2023-03-19T20:30:26.281Z,20.07
2023-03-19T20:32:54.722Z,21.10
2023-03-19T20:35:24.140Z,19.47
2023-03-19T20:37:53.899Z,22.77
2023-03-19T20:40:22.938Z,22.87
2023-03-19T20:42:51.623Z,25.47
2023-03-19T20:45:21.027Z,27.20
2023-03-19T20:47:49.182Z,27.30
2023-03-19T20:50:18.454Z,24.10
2023-03-19T20:52:46.384Z,23.23
2023-03-19T20:55:18.765Z,24.90
2023-03-19T20:57:47.799Z,24.23
2023-03-19T21:00:21.176Z,21.43
2023-03-19T21:02:49.971Z,28.03
2023-03-19T21:05:18.259Z,34.23
2023-03-19T21:07:47.048Z,22.00
2023-03-19T21:10:22.830Z,26.77
2023-03-19T21:12:50.871Z,19.60
2023-03-19T21:15:18.860Z,24.23
2023-03-19T21:17:46.880Z,19.17
2023-03-19T21:20:19.163Z,17.93
2023-03-19T21:22:48.357Z,20.00
2023-03-19T21:25:20.773Z,19.60
2023-03-19T21:27:51.089Z,38.40
2023-03-19T21:30:19.317Z,29.03
2023-03-19T21:32:47.268Z,22.90
2023-03-19T21:35:19.467Z,17.07
2023-03-19T21:37:47.748Z,23.90
2023-03-19T21:40:17.052Z,20.60
2023-03-19T21:42:46.928Z,12.10
2023-03-19T21:45:17.582Z,11.93
2023-03-19T21:47:45.797Z,17.27
2023-03-19T21:50:18.303Z,19.77
2023-03-19T21:52:58.735Z,22.23
2023-03-19T21:55:29.838Z,10.97
2023-03-19T21:57:59.269Z,16.03
2023-03-19T22:00:27.268Z,20.20
2023-03-19T22:02:55.802Z,18.23
2023-03-19T22:05:25.499Z,19.83
2023-03-19T22:07:53.524Z,18.33
2023-03-19T22:10:22.497Z,20.70
2023-03-19T22:12:50.524Z,16.87
2023-03-19T22:15:25.093Z,16.70
2023-03-19T22:17:53.071Z,26.03
2023-03-19T22:20:22.019Z,19.73
2023-03-19T22:22:50.049Z,14.70
2023-03-19T22:25:18.544Z,14.13
2023-03-19T22:27:47.415Z,20.40
2023-03-19T22:30:21.346Z,13.30
2023-03-19T22:32:50.700Z,15.80
2023-03-19T22:35:18.908Z,15.90
2023-03-19T22:37:47.027Z,13.23
2023-03-19T22:40:16.221Z,17.10
2023-03-19T22:42:44.319Z,16.03
2023-03-19T22:45:18.625Z,13.33
2023-03-19T22:47:46.638Z,16.20
2023-03-19T22:50:20.684Z,12.57
2023-03-19T22:52:48.938Z,12.27
2023-03-19T22:55:17.149Z,11.93
2023-03-19T22:57:45.129Z,12.00
2023-03-19T23:00:16.138Z,12.57
2023-03-19T23:02:44.649Z,13.13
2023-03-19T23:05:28.601Z,13.00
2023-03-19T23:07:56.568Z,10.43
2023-03-19T23:10:26.859Z,12.63
2023-03-19T23:12:55.050Z,17.63
2023-03-19T23:15:23.267Z,16.10
2023-03-19T23:17:52.592Z,18.43
2023-03-19T23:20:21.636Z,15.67
2023-03-19T23:22:51.028Z,19.93
2023-03-19T23:25:19.812Z,25.27
2023-03-19T23:27:47.745Z,14.80
2023-03-19T23:30:24.439Z,18.40
2023-03-19T23:32:53.238Z,15.97
2023-03-19T23:35:22.578Z,14.53
2023-03-19T23:37:51.862Z,19.67
2023-03-19T23:40:19.928Z,14.87
2023-03-19T23:42:48.803Z,19.07
2023-03-19T23:45:34.322Z,20.37
2023-03-19T23:48:04.139Z,13.17
2023-03-19T23:50:32.204Z,16.60
2023-03-19T23:53:01.595Z,16.10
2023-03-19T23:55:29.841Z,14.40
2023-03-19T23:57:57.931Z,14.73
